Time;durP1;ratioP1;P1;durP2;ratioP2;P2;SDS_P1;SDS_P2;PMS_P1;PMS_P2;Temp;Humidity;BMP_temperature;BMP_pressure;BME280_temperature;BME280_humidity;BME280_pressure;Samples;Min_cycle;Max_cycle;Signal;HPM_P1;HPM_P2
2022/06/29 00:01:39;;;;;;;7.90;5.00;;;;;;;18.60;100.00;100838.02;1736143;82;20890;-42
2022/06/29 00:04:06;;;;;;;7.17;5.28;;;;;;;18.57;100.00;100839.47;1736070;81;20937;-42
2022/06/29 00:06:33;;;;;;;13.90;5.80;;;;;;;18.55;100.00;100838.21;1736040;81;21475;-42
2022/06/29 00:09:00;;;;;;;10.30;5.87;;;;;;;18.55;100.00;100829.52;1736050;81;21063;-42
2022/06/29 00:11:27;;;;;;;9.25;5.55;;;;;;;18.53;100.00;100830.88;1736023;82;20973;-42
2022/06/29 00:13:54;;;;;;;10.43;5.90;;;;;;;18.50;100.00;100828.41;1736123;82;20929;-42
2022/06/29 00:16:22;;;;;;;9.28;5.60;;;;;;;18.47;100.00;100826.80;1736084;82;20937;-41
2022/06/29 00:18:49;;;;;;;10.20;5.85;;;;;;;18.45;100.00;100821.22;1735879;81;20913;-42
2022/06/29 00:21:15;;;;;;;6.33;5.72;;;;;;;18.42;100.00;100825.30;1736005;82;21140;-42
2022/06/29 00:23:42;;;;;;;11.28;5.55;;;;;;;18.40;100.00;100831.91;1736104;81;20945;-42
2022/06/29 00:26:09;;;;;;;9.40;5.33;;;;;;;18.40;100.00;100836.31;1749026;81;20888;-42
2022/06/29 00:28:37;;;;;;;11.60;5.95;;;;;;;18.37;100.00;100832.91;1749926;82;20971;-42
2022/06/29 00:31:04;;;;;;;9.63;5.87;;;;;;;18.35;100.00;100835.20;1750107;82;20893;-42
2022/06/29 00:33:31;;;;;;;8.53;6.15;;;;;;;18.36;100.00;100834.28;1749954;82;22200;-42
2022/06/29 00:35:58;;;;;;;8.23;5.95;;;;;;;18.36;100.00;100829.03;1731403;81;20961;-42
2022/06/29 00:38:25;;;;;;;8.55;5.95;;;;;;;18.34;100.00;100825.64;1720253;83;20908;-42
2022/06/29 00:40:52;;;;;;;6.80;6.12;;;;;;;18.32;100.00;100823.55;1720188;83;20968;-42
2022/06/29 00:43:19;;;;;;;7.20;6.03;;;;;;;18.29;100.00;100825.84;1720279;83;20877;-41
2022/06/29 00:45:46;;;;;;;13.35;5.95;;;;;;;18.28;100.00;100825.92;1720173;82;21152;-42
2022/06/29 00:48:12;;;;;;;9.70;5.95;;;;;;;18.25;100.00;100826.89;1720176;82;20908;-42
2022/06/29 00:50:39;;;;;;;6.67;5.97;;;;;;;18.31;100.00;100827.92;1720162;83;20912;-42
2022/06/29 00:53:07;;;;;;;11.12;5.78;;;;;;;18.36;100.00;100818.55;1693660;83;20853;-42
2022/06/29 00:55:37;;;;;;;13.22;6.00;;;;;;;18.34;100.00;100812.53;1720115;83;20979;-42
2022/06/29 00:58:07;;;;;;;6.92;5.90;;;;;;;18.32;100.00;100821.80;1720092;83;21081;-42
2022/06/29 01:00:34;;;;;;;13.45;6.20;;;;;;;18.30;100.00;100820.98;1720334;83;21031;-42
2022/06/29 01:03:01;;;;;;;9.08;6.20;;;;;;;18.33;100.00;100820.88;1720098;82;20948;-42
2022/06/29 01:05:30;;;;;;;9.20;5.92;;;;;;;18.41;100.00;100820.98;1693517;83;20908;-42
2022/06/29 01:07:59;;;;;;;8.35;6.12;;;;;;;18.44;100.00;100826.94;1720510;83;20975;-42
2022/06/29 01:10:27;;;;;;;11.93;5.58;;;;;;;18.43;100.00;100830.45;1693567;83;21111;-42
2022/06/29 01:12:54;;;;;;;12.90;6.17;;;;;;;18.39;100.00;100824.96;1720146;82;20968;-42
2022/06/29 01:15:21;;;;;;;7.20;5.97;;;;;;;18.37;100.00;100824.19;1720431;83;21556;-42
2022/06/29 01:17:48;;;;;;;9.95;5.40;;;;;;;18.34;100.00;100821.27;1720208;82;20869;-42
2022/06/29 01:20:15;;;;;;;6.95;5.62;;;;;;;18.33;100.00;100813.02;1720051;82;20979;-42
2022/06/29 01:22:42;;;;;;;8.48;5.70;;;;;;;18.30;100.00;100814.91;1720031;82;22081;-43
2022/06/29 01:25:09;;;;;;;6.08;5.55;;;;;;;18.25;100.00;100812.48;1720003;82;20920;-42
2022/06/29 01:27:36;;;;;;;7.30;5.40;;;;;;;18.21;100.00;100822.72;1720133;82;20951;-42
2022/06/29 01:30:07;;;;;;;10.98;6.30;;;;;;;18.19;100.00;100825.87;1720245;83;20908;-42
2022/06/29 01:32:38;;;;;;;9.60;5.90;;;;;;;18.14;100.00;100826.06;1720364;83;20944;-42
2022/06/29 01:35:05;;;;;;;9.55;6.08;;;;;;;18.13;100.00;100834.01;1719802;83;22098;-42
2022/06/29 01:37:32;;;;;;;9.00;6.08;;;;;;;18.13;100.00;100836.16;1720269;83;20937;-42
2022/06/29 01:39:59;;;;;;;9.23;5.62;;;;;;;18.13;100.00;100843.17;1720244;83;20963;-42
2022/06/29 01:42:26;;;;;;;6.53;5.28;;;;;;;18.11;100.00;100848.95;1720218;83;20909;-42
2022/06/29 01:44:52;;;;;;;10.32;5.78;;;;;;;18.06;100.00;100848.69;1720051;83;21468;-42
2022/06/29 01:47:19;;;;;;;12.00;6.35;;;;;;;18.04;100.00;100854.91;1720235;83;21147;-42
2022/06/29 01:49:46;;;;;;;9.63;5.75;;;;;;;18.02;100.00;100856.27;1720181;83;20928;-42
2022/06/29 01:52:13;;;;;;;11.48;6.80;;;;;;;18.02;100.00;100853.64;1720231;83;20936;-43
2022/06/29 01:54:41;;;;;;;7.15;6.45;;;;;;;17.99;100.00;100852.44;1720073;83;21671;-43
2022/06/29 01:57:08;;;;;;;13.78;7.42;;;;;;;17.99;100.00;100851.13;1720111;82;20842;-43
2022/06/29 01:59:35;;;;;;;8.00;7.08;;;;;;;18.00;100.00;100846.28;1720197;83;21210;-43
2022/06/29 02:02:02;;;;;;;9.95;6.72;;;;;;;18.02;100.00;100847.58;1720119;83;21027;-43
2022/06/29 02:04:29;;;;;;;8.03;5.90;;;;;;;18.03;100.00;100846.66;1720040;83;21107;-43
2022/06/29 02:06:56;;;;;;;13.10;6.35;;;;;;;18.03;100.00;100850.11;1693628;83;20987;-43
2022/06/29 02:09:23;;;;;;;8.25;6.45;;;;;;;18.03;100.00;100856.66;1720144;83;20861;-43
2022/06/29 02:11:50;;;;;;;12.25;6.95;;;;;;;18.05;100.00;100854.82;1720148;82;21867;-43
2022/06/29 02:14:17;;;;;;;10.98;7.87;;;;;;;18.09;100.00;100857.72;1720148;82;20917;-43
2022/06/29 02:16:44;;;;;;;18.42;7.45;;;;;;;18.14;100.00;100861.42;1720265;83;20919;-43
2022/06/29 02:19:11;;;;;;;8.88;6.75;;;;;;;18.20;100.00;100868.17;1720099;82;21639;-43
2022/06/29 02:21:38;;;;;;;10.75;6.95;;;;;;;18.22;100.00;100872.44;1720308;83;20971;-43
2022/06/29 02:24:05;;;;;;;13.88;6.00;;;;;;;18.27;100.00;100872.22;1720183;83;21126;-43
2022/06/29 02:26:33;;;;;;;9.10;6.70;;;;;;;18.30;100.00;100868.63;1720087;83;20948;-43
2022/06/29 02:29:00;;;;;;;7.85;6.12;;;;;;;18.31;100.00;100871.16;1720136;82;20857;-43
2022/06/29 02:36:58;;;;;;;16.60;7.15;;;;;;;18.41;100.00;100868.98;1720307;83;21058;-43
2022/06/29 02:39:25;;;;;;;15.15;7.12;;;;;;;18.50;100.00;100867.28;1720009;83;20943;-43
2022/06/29 02:41:51;;;;;;;11.63;7.30;;;;;;;18.57;100.00;100871.79;1720111;83;20936;-43
2022/06/29 02:44:18;;;;;;;18.00;8.58;;;;;;;18.64;100.00;100863.16;1693418;83;20916;-43
2022/06/29 02:46:45;;;;;;;13.50;7.40;;;;;;;18.71;100.00;100868.98;1693514;83;20908;-43
2022/06/29 02:49:11;;;;;;;11.88;7.62;;;;;;;18.78;100.00;100860.77;1720100;83;21254;-42
2022/06/29 02:51:38;;;;;;;13.30;7.22;;;;;;;18.86;100.00;100869.59;1720129;83;20915;-42
2022/06/29 02:54:05;;;;;;;10.63;7.45;;;;;;;18.92;100.00;100871.92;1720274;83;20975;-42
2022/06/29 02:56:32;;;;;;;12.03;7.70;;;;;;;19.01;100.00;100867.18;1693868;83;21521;-42
2022/06/29 02:58:58;;;;;;;14.23;7.28;;;;;;;19.07;100.00;100860.32;1693614;83;20892;-42
2022/06/29 03:01:25;;;;;;;18.95;7.53;;;;;;;19.15;100.00;100859.95;1720205;83;21200;-43
2022/06/29 03:03:52;;;;;;;12.78;7.60;;;;;;;19.23;100.00;100863.92;1720144;83;21666;-43
2022/06/29 03:06:19;;;;;;;11.48;7.53;;;;;;;19.30;100.00;100863.16;1720083;83;20880;-43
2022/06/29 03:08:46;;;;;;;7.90;7.05;;;;;;;19.39;100.00;100860.56;1720194;83;20880;-43
2022/06/29 03:11:13;;;;;;;10.90;7.72;;;;;;;19.47;100.00;100853.63;1720260;83;20944;-43
2022/06/29 03:13:41;;;;;;;11.25;7.40;;;;;;;19.53;100.00;100857.25;1720237;82;22010;-43
2022/06/29 03:16:08;;;;;;;9.53;6.83;;;;;;;19.60;100.00;100855.17;1720265;83;20877;-43
2022/06/29 03:18:35;;;;;;;13.48;7.22;;;;;;;19.67;100.00;100848.68;1720334;83;20893;-42
2022/06/29 03:21:03;;;;;;;15.88;7.00;;;;;;;19.71;100.00;100846.28;1720322;83;20948;-43
2022/06/29 03:23:30;;;;;;;10.72;6.83;;;;;;;19.77;100.00;100855.15;1720367;83;21019;-42
2022/06/29 03:25:57;;;;;;;11.88;7.67;;;;;;;19.84;100.00;100859.63;1714536;83;21240;-42
2022/06/29 03:28:24;;;;;;;9.60;6.97;;;;;;;19.89;100.00;100862.87;1706520;84;20913;-43
2022/06/29 03:30:52;;;;;;;11.83;7.37;;;;;;;19.94;100.00;100864.81;1706803;84;20988;-43
2022/06/29 03:33:18;;;;;;;10.18;7.17;;;;;;;20.00;100.00;100870.23;1706654;83;21431;-42
2022/06/29 03:35:45;;;;;;;10.88;7.25;;;;;;;20.04;100.00;100863.88;1706687;82;20988;-43
2022/06/29 03:38:12;;;;;;;10.82;7.78;;;;;;;20.13;100.00;100869.61;1706763;84;21248;-43
2022/06/29 03:40:39;;;;;;;12.25;7.65;;;;;;;20.15;100.00;100862.02;1706689;84;21399;-43
2022/06/29 03:43:06;;;;;;;9.28;6.97;;;;;;;20.20;100.00;100866.55;1706619;84;20937;-43
2022/06/29 03:45:33;;;;;;;17.90;6.95;;;;;;;20.31;100.00;100865.16;1706566;84;20898;-43
2022/06/29 03:48:00;;;;;;;13.00;7.80;;;;;;;20.39;100.00;100870.39;1706564;84;20893;-43
2022/06/29 03:50:27;;;;;;;13.70;7.45;;;;;;;20.48;100.00;100871.69;1706852;84;22094;-43
2022/06/29 03:52:54;;;;;;;19.07;7.95;;;;;;;20.58;100.00;100872.49;1663757;84;20976;-43
2022/06/29 03:55:21;;;;;;;16.90;7.22;;;;;;;20.70;100.00;100870.98;1706728;84;20937;-43
2022/06/29 03:57:48;;;;;;;12.73;7.35;;;;;;;20.84;100.00;100870.25;1706809;83;20913;-43
2022/06/29 04:00:16;;;;;;;14.63;7.55;;;;;;;20.96;100.00;100878.31;1706492;83;20988;-43
2022/06/29 04:02:43;;;;;;;19.27;7.40;;;;;;;21.11;100.00;100884.98;1706667;84;21276;-43
2022/06/29 04:05:10;;;;;;;11.97;6.92;;;;;;;21.26;100.00;100879.31;1706428;83;20941;-43
2022/06/29 04:07:36;;;;;;;13.88;6.83;;;;;;;21.46;100.00;100883.42;1706675;84;20897;-43
2022/06/29 04:10:04;;;;;;;10.23;7.60;;;;;;;21.67;100.00;100885.79;1706521;84;20980;-43
2022/06/29 04:12:34;;;;;;;11.25;8.10;;;;;;;21.77;100.00;100890.05;1706659;84;21012;-43
2022/06/29 04:15:01;;;;;;;11.50;7.83;;;;;;;21.82;100.00;100886.19;1686732;84;21015;-43
2022/06/29 04:17:29;;;;;;;14.00;8.60;;;;;;;21.94;100.00;100886.41;1706530;84;20976;-43
2022/06/29 04:19:56;;;;;;;9.50;8.53;;;;;;;22.13;100.00;100888.78;1706825;84;20941;-43
2022/06/29 04:22:23;;;;;;;11.55;8.28;;;;;;;22.36;100.00;100891.80;1706612;83;20933;-43
2022/06/29 04:24:50;;;;;;;10.50;7.70;;;;;;;22.61;100.00;100891.18;1706483;83;21092;-43
2022/06/29 04:27:17;;;;;;;17.42;8.88;;;;;;;22.79;100.00;100894.45;1717727;83;22109;-43
2022/06/29 04:29:44;;;;;;;15.78;8.60;;;;;;;22.96;100.00;100894.69;1720240;83;20987;-43
2022/06/29 04:32:11;;;;;;;15.65;8.28;;;;;;;23.08;100.00;100904.92;1720114;83;21375;-43
2022/06/29 04:34:38;;;;;;;11.48;8.30;;;;;;;23.23;100.00;100896.48;1720125;83;20995;-43
2022/06/29 04:37:05;;;;;;;11.88;7.85;;;;;;;23.43;100.00;100894.37;1720299;83;20985;-43
2022/06/29 04:39:32;;;;;;;10.98;7.75;;;;;;;23.63;97.93;100900.12;1720279;82;21236;-43
2022/06/29 04:41:58;;;;;;;16.07;8.33;;;;;;;23.83;96.29;100900.93;1720225;83;20928;-43
2022/06/29 04:44:25;;;;;;;12.15;7.78;;;;;;;24.11;95.99;100903.53;1720173;83;20932;-43
2022/06/29 04:46:54;;;;;;;11.80;7.90;;;;;;;24.45;95.27;100901.17;1720139;83;20980;-43
2022/06/29 04:49:21;;;;;;;10.72;7.45;;;;;;;24.85;93.50;100903.30;1720166;83;21525;-43
2022/06/29 04:51:48;;;;;;;16.93;8.10;;;;;;;25.13;91.34;100902.13;1720277;83;21160;-43
2022/06/29 04:54:14;;;;;;;14.15;7.65;;;;;;;25.35;90.06;100900.55;1720186;83;20967;-43
2022/06/29 04:56:42;;;;;;;11.43;8.00;;;;;;;25.49;86.53;100899.08;1720253;82;20944;-43
2022/06/29 04:59:10;;;;;;;13.48;7.72;;;;;;;25.49;84.68;100899.08;1720161;82;20979;-43
2022/06/29 05:01:37;;;;;;;15.50;7.90;;;;;;;25.51;84.78;100898.48;1720321;82;20967;-43
2022/06/29 05:04:04;;;;;;;13.28;7.65;;;;;;;25.72;84.93;100895.64;1720332;83;21209;-43
2022/06/29 05:06:31;;;;;;;10.53;7.35;;;;;;;25.95;83.71;100901.86;1720111;83;21536;-43
2022/06/29 05:08:58;;;;;;;13.58;7.50;;;;;;;26.18;84.28;100901.92;1720114;83;20999;-43
2022/06/29 05:11:26;;;;;;;13.53;7.87;;;;;;;26.47;83.39;100905.42;1693807;83;21576;-43
2022/06/29 05:13:53;;;;;;;18.23;7.83;;;;;;;26.82;82.10;100908.38;1720296;83;20952;-43
2022/06/29 05:16:20;;;;;;;12.95;7.85;;;;;;;27.12;79.44;100902.90;1693536;83;21301;-43
2022/06/29 05:18:48;;;;;;;20.32;7.83;;;;;;;27.34;76.26;100903.31;1719946;83;21012;-43
2022/06/29 05:21:18;;;;;;;19.73;7.62;;;;;;;27.50;72.11;100894.91;1693385;83;20912;-43
2022/06/29 05:23:44;;;;;;;11.70;7.72;;;;;;;27.59;71.05;100892.47;1720094;82;20944;-43
2022/06/29 05:26:11;;;;;;;13.35;7.70;;;;;;;27.72;71.30;100896.27;1720009;83;21450;-43
2022/06/29 05:28:39;;;;;;;12.40;7.65;;;;;;;27.94;70.39;100896.12;1720086;82;21398;-43
2022/06/29 05:31:06;;;;;;;14.28;7.28;;;;;;;28.15;69.85;100899.28;1720142;83;20945;-43
2022/06/29 05:33:39;;;;;;;8.33;7.17;;;;;;;28.32;69.21;100902.30;1720062;83;20936;-43
2022/06/29 05:36:08;;;;;;;9.15;7.12;;;;;;;28.55;67.47;100902.93;1720171;83;20885;-43
2022/06/29 05:38:36;;;;;;;9.70;6.78;;;;;;;28.85;66.81;100896.39;1719974;83;21461;-43
2022/06/29 05:41:03;;;;;;;11.63;7.20;;;;;;;29.03;64.67;100888.55;1693723;83;21251;-43
2022/06/29 05:46:34;;;;;;;12.25;7.28;;;;;;;29.20;62.82;100891.86;1800795;79;24560;-44
2022/06/29 05:49:03;;;;;;;7.60;6.80;;;;;;;29.45;62.96;100892.31;1751472;80;20900;-43
2022/06/29 05:51:30;;;;;;;9.00;7.28;;;;;;;29.72;63.91;100889.39;1758444;80;21141;-42
2022/06/29 05:53:58;;;;;;;11.08;6.40;;;;;;;29.92;61.44;100895.51;1723185;80;20951;-43
2022/06/29 05:56:24;;;;;;;13.55;6.90;;;;;;;30.04;58.04;100898.88;1725210;80;20988;-43
2022/06/29 05:58:52;;;;;;;8.80;7.17;;;;;;;30.14;57.47;100901.52;1741197;80;21020;-43
2022/06/29 06:01:21;;;;;;;15.98;7.22;;;;;;;30.32;58.48;100900.23;1757083;80;20909;-43
2022/06/29 06:03:51;;;;;;;15.55;6.67;;;;;;;30.57;57.75;100903.20;1729900;80;21362;-43
2022/06/29 06:06:20;;;;;;;16.57;6.50;;;;;;;30.70;53.20;100897.54;1719316;82;20943;-44
2022/06/29 06:08:49;;;;;;;12.98;6.95;;;;;;;30.63;53.77;100905.81;1746855;80;21537;-43
2022/06/29 06:11:17;;;;;;;9.08;7.08;;;;;;;30.68;54.17;100912.88;1749803;80;21011;-43
2022/06/29 06:13:46;;;;;;;8.78;6.85;;;;;;;30.77;53.77;100907.96;1749609;80;21030;-43
2022/06/29 06:16:15;;;;;;;14.20;7.33;;;;;;;30.78;52.81;100904.30;1742413;81;21086;-43
2022/06/29 06:18:46;;;;;;;9.73;7.10;;;;;;;30.56;52.82;100907.34;1758238;80;21157;-43
2022/06/29 06:21:15;;;;;;;10.70;7.28;;;;;;;30.30;53.25;100908.03;1751685;80;21019;-43
2022/06/29 06:23:45;;;;;;;9.30;6.85;;;;;;;30.08;53.24;100910.94;1740442;80;20999;-44
2022/06/29 06:26:15;;;;;;;13.28;6.90;;;;;;;30.15;54.25;100908.53;1722773;80;21134;-43
2022/06/29 06:28:44;;;;;;;10.95;6.35;;;;;;;30.31;55.41;100899.89;1742199;80;21124;-44
2022/06/29 06:31:13;;;;;;;12.95;6.83;;;;;;;30.44;54.32;100907.56;1770323;80;21026;-44
2022/06/29 06:33:43;;;;;;;13.62;6.87;;;;;;;30.42;54.37;100900.67;1735832;81;20919;-43
2022/06/29 06:36:12;;;;;;;14.90;6.92;;;;;;;30.46;55.25;100906.91;1763459;80;20908;-44
2022/06/29 06:38:41;;;;;;;7.10;6.30;;;;;;;30.49;55.30;100907.13;1746143;80;21090;-43
2022/06/29 06:41:25;;;;;;;13.65;6.72;;;;;;;30.47;54.75;100907.77;1739857;80;21305;-43
2022/06/29 06:43:58;;;;;;;11.22;7.30;;;;;;;30.31;52.75;100912.38;1750042;80;21252;-44
2022/06/29 06:46:25;;;;;;;11.88;6.72;;;;;;;30.31;54.16;100913.23;1744841;80;20993;-45
2022/06/29 06:48:53;;;;;;;12.25;6.33;;;;;;;30.51;53.19;100911.82;1767290;81;21035;-44
2022/06/29 06:51:23;;;;;;;7.67;6.85;;;;;;;30.65;53.13;100905.99;1770203;81;20980;-44
2022/06/29 06:53:51;;;;;;;10.28;6.37;;;;;;;30.70;54.46;100914.08;1760975;81;21215;-44
2022/06/29 06:56:20;;;;;;;9.98;6.05;;;;;;;30.50;52.48;100905.63;1759715;81;20932;-44
2022/06/29 06:58:49;;;;;;;8.93;6.42;;;;;;;30.38;53.74;100902.31;1739010;80;20933;-44
2022/06/29 07:01:19;;;;;;;7.75;6.17;;;;;;;30.58;53.71;100898.21;1734714;81;21023;-44
2022/06/29 07:03:48;;;;;;;8.05;6.45;;;;;;;30.65;52.80;100902.50;1765947;81;20846;-44
2022/06/29 07:06:17;;;;;;;11.40;6.53;;;;;;;30.56;52.97;100902.86;1721766;81;21173;-44
2022/06/29 07:08:46;;;;;;;12.40;6.17;;;;;;;30.45;53.52;100897.23;1743780;81;20960;-43
2022/06/29 07:14:21;;;;;;;6.65;5.97;;;;;;;30.70;54.00;100898.05;1752928;81;21470;-44
2022/06/29 07:16:50;;;;;;;10.08;6.17;;;;;;;30.98;53.10;100900.16;1724137;80;20960;-44
2022/06/29 07:19:20;;;;;;;10.18;5.60;;;;;;;31.10;52.06;100904.78;1765914;81;20918;-44
2022/06/29 07:21:53;;;;;;;7.53;6.12;;;;;;;31.34;52.46;100893.52;1754070;81;20908;-44
2022/06/29 07:24:27;;;;;;;20.72;6.22;;;;;;;31.64;52.82;100894.56;1733564;80;20908;-44
2022/06/29 07:26:54;;;;;;;12.90;5.90;;;;;;;31.82;50.94;100890.52;1744176;81;20968;-44
2022/06/29 07:29:22;;;;;;;7.53;5.90;;;;;;;31.85;52.69;100889.38;1769625;81;21027;-44
2022/06/29 07:31:49;;;;;;;7.53;5.62;;;;;;;31.93;51.61;100894.28;1756380;80;21255;-44
2022/06/29 07:34:18;;;;;;;6.80;4.75;;;;;;;32.20;49.36;100888.88;1749650;81;20921;-44
2022/06/29 07:36:47;;;;;;;5.40;4.90;;;;;;;32.42;45.33;100890.19;1767611;80;21580;-44
2022/06/29 07:39:17;;;;;;;10.60;5.00;;;;;;;32.63;47.32;100891.08;1752464;81;21546;-44
2022/06/29 07:41:48;;;;;;;9.98;5.40;;;;;;;32.91;46.73;100897.53;1757386;81;21010;-44
2022/06/29 07:44:15;;;;;;;6.97;5.83;;;;;;;33.17;47.57;100885.83;1754900;81;21897;-44
2022/06/29 07:46:42;;;;;;;14.50;6.30;;;;;;;33.43;46.45;100892.06;1764153;80;20996;-44
2022/06/29 07:49:11;;;;;;;9.90;4.00;;;;;;;33.59;43.74;100885.84;1749688;81;21075;-44
2022/06/29 07:51:38;;;;;;;11.48;4.12;;;;;;;33.64;40.87;100890.19;1760210;81;20992;-44
2022/06/29 07:54:05;;;;;;;12.28;4.60;;;;;;;33.53;39.49;100894.91;1757313;81;20983;-44
2022/06/29 07:56:33;;;;;;;14.10;7.30;;;;;;;33.34;41.10;100891.20;1762084;81;21205;-44
2022/06/29 07:59:01;;;;;;;9.63;5.00;;;;;;;33.19;41.33;100896.39;1754110;81;20992;-44
2022/06/29 08:01:28;;;;;;;12.55;5.97;;;;;;;32.96;40.35;100892.50;1747768;81;21058;-45
2022/06/29 08:03:55;;;;;;;9.53;4.03;;;;;;;32.78;39.83;100899.84;1756594;81;21024;-44
2022/06/29 08:06:24;;;;;;;11.45;4.70;;;;;;;32.61;39.56;100897.63;1766034;81;20928;-44
2022/06/29 08:08:52;;;;;;;7.50;4.25;;;;;;;32.46;40.58;100894.70;1771219;81;21778;-44
2022/06/29 08:11:21;;;;;;;6.53;5.92;;;;;;;32.28;40.31;100900.12;1764514;81;20893;-44
2022/06/29 08:13:50;;;;;;;12.00;5.45;;;;;;;32.13;42.48;100898.08;1757984;81;20975;-44
2022/06/29 08:16:19;;;;;;;6.37;4.30;;;;;;;32.00;42.58;100899.84;1758042;81;21003;-44
2022/06/29 08:18:49;;;;;;;5.90;4.62;;;;;;;31.86;42.83;100895.92;1752963;81;20876;-44
2022/06/29 08:21:17;;;;;;;10.23;5.30;;;;;;;31.89;45.24;100894.75;1751563;81;21923;-44
2022/06/29 08:23:48;;;;;;;16.67;8.85;;;;;;;32.01;44.31;100896.17;1752339;81;21584;-44
2022/06/29 08:26:18;;;;;;;7.47;4.67;;;;;;;32.13;41.79;100903.42;1759382;80;20971;-44
2022/06/29 08:28:47;;;;;;;8.60;5.20;;;;;;;32.24;41.97;100903.64;1753231;80;20984;-44
2022/06/29 08:31:16;;;;;;;12.55;3.45;;;;;;;32.43;40.97;100893.69;1763344;80;21008;-44
2022/06/29 08:33:45;;;;;;;7.08;3.20;;;;;;;32.48;40.92;100890.87;1749891;80;21202;-44
2022/06/29 08:36:14;;;;;;;9.03;3.50;;;;;;;32.55;40.66;100885.70;1753912;80;21550;-45
2022/06/29 08:38:43;;;;;;;10.43;3.30;;;;;;;32.56;39.22;100882.52;1762618;81;20980;-44
2022/06/29 08:41:12;;;;;;;3.77;2.95;;;;;;;32.56;40.56;100879.84;1749189;80;21071;-44
2022/06/29 08:43:42;;;;;;;25.40;3.58;;;;;;;32.65;40.48;100877.53;1735932;81;20960;-43
2022/06/29 08:46:14;;;;;;;4.65;3.15;;;;;;;32.73;40.02;100878.06;1757855;81;21090;-43
2022/06/29 08:48:43;;;;;;;3.37;2.72;;;;;;;32.91;37.15;100874.75;1739424;81;20967;-44
2022/06/29 08:51:12;;;;;;;3.47;2.40;;;;;;;33.05;36.08;100877.79;1760532;81;21485;-43
2022/06/29 08:53:41;;;;;;;4.65;2.80;;;;;;;33.16;34.65;100868.58;1750106;81;20917;-44
2022/06/29 08:56:09;;;;;;;7.00;2.60;;;;;;;33.20;35.78;100868.58;1754456;81;20844;-43
2022/06/29 08:58:38;;;;;;;3.30;2.75;;;;;;;33.33;35.73;100861.37;1759492;81;21220;-44
2022/06/29 09:01:09;;;;;;;3.80;3.08;;;;;;;33.49;36.94;100860.05;1713148;81;20949;-44
2022/06/29 09:03:36;;;;;;;4.25;2.40;;;;;;;33.58;34.89;100860.02;1760508;81;21030;-44
2022/06/29 09:06:06;;;;;;;2.90;2.55;;;;;;;33.55;34.23;100857.16;1755455;80;20988;-44
2022/06/29 09:08:35;;;;;;;5.80;2.37;;;;;;;33.68;34.69;100853.95;1735742;81;21066;-44
2022/06/29 09:11:30;;;;;;;6.78;2.72;;;;;;;33.77;34.70;100858.31;1766278;80;21237;-44
2022/06/29 09:14:13;;;;;;;6.25;2.98;;;;;;;33.78;33.94;100853.27;1748223;81;20948;-44
2022/06/29 09:17:00;;;;;;;4.10;3.60;;;;;;;33.81;34.06;100852.92;1754339;80;20980;-44
2022/06/29 09:19:38;;;;;;;5.03;3.55;;;;;;;33.80;34.46;100848.57;1747349;81;20980;-44
2022/06/29 09:22:05;;;;;;;5.58;2.65;;;;;;;33.84;35.04;100852.25;1745222;80;20984;-43
2022/06/29 09:24:33;;;;;;;6.17;3.15;;;;;;;33.87;33.51;100845.19;1762813;80;22030;-44
2022/06/29 09:27:03;;;;;;;6.15;3.67;;;;;;;33.68;34.07;100845.41;1763806;81;20913;-44
2022/06/29 09:29:36;;;;;;;3.75;3.33;;;;;;;33.67;35.15;100852.28;1758467;81;20961;-44
2022/06/29 09:32:07;;;;;;;3.60;3.33;;;;;;;33.64;34.81;100854.82;1768702;81;20972;-44
2022/06/29 09:34:40;;;;;;;6.03;3.42;;;;;;;33.52;35.45;100850.31;1744059;80;20939;-44
2022/06/29 09:37:12;;;;;;;9.68;3.90;;;;;;;33.57;35.50;100857.01;1751580;81;21106;-44
2022/06/29 09:39:44;;;;;;;9.28;3.47;;;;;;;33.62;35.55;100844.77;1753160;81;20979;-44
2022/06/29 09:42:14;;;;;;;4.10;3.08;;;;;;;33.67;35.02;100849.11;1758517;81;21364;-43
2022/06/29 09:44:42;;;;;;;4.72;3.15;;;;;;;33.77;35.04;100852.94;1754749;81;20976;-43
2022/06/29 09:47:14;;;;;;;7.65;3.33;;;;;;;33.79;34.71;100845.55;1751544;81;21406;-43
2022/06/29 09:49:44;;;;;;;5.28;3.25;;;;;;;33.82;35.41;100842.52;1759883;81;21263;-43
2022/06/29 09:52:12;;;;;;;4.90;2.80;;;;;;;33.82;36.08;100844.35;1757097;81;20864;-43
2022/06/29 09:54:54;;;;;;;9.95;3.27;;;;;;;33.93;36.98;100845.34;1752118;81;21006;-43
2022/06/29 09:57:29;;;;;;;5.58;3.17;;;;;;;34.27;35.45;100847.41;1760458;80;20905;-43
2022/06/29 10:02:58;;;;;;;7.28;3.33;;;;;;;34.67;36.91;100846.03;1758655;80;21922;-43
2022/06/29 10:05:54;;;;;;;13.22;8.85;;;;;;;35.01;35.50;100852.03;1767089;81;20868;-44
2022/06/29 10:07:59;;;;;;;18.95;12.10;;;;;;;35.14;34.03;100848.73;1746114;81;20860;-43
2022/06/29 10:10:27;;;;;;;6.08;5.10;;;;;;;35.04;34.03;100853.02;1762202;81;21080;-43
2022/06/29 10:13:41;;;;;;;5.70;4.22;;;;;;;34.57;33.78;100849.44;1761917;81;21059;-42
2022/06/29 10:16:37;;;;;;;6.67;3.70;;;;;;;33.94;35.34;100848.84;1759758;81;21114;-43
2022/06/29 10:19:26;;;;;;;7.05;4.55;;;;;;;33.41;36.33;100853.82;1762739;80;20995;-42
2022/06/29 10:21:53;;;;;;;9.80;4.33;;;;;;;33.22;37.32;100849.98;1764920;80;20988;-43
2022/06/29 10:24:20;;;;;;;9.00;3.80;;;;;;;33.36;36.46;100846.27;1713026;81;21003;-42
2022/06/29 10:26:48;;;;;;;8.68;3.40;;;;;;;33.50;36.40;100852.33;1766080;81;21048;-43
2022/06/29 10:29:26;;;;;;;3.47;3.17;;;;;;;33.50;36.81;100841.60;1745334;81;21245;-43
2022/06/29 10:32:02;;;;;;;8.28;4.50;;;;;;;33.65;36.36;100841.73;1744144;81;21058;-43
2022/06/29 10:35:06;;;;;;;19.73;11.83;;;;;;;33.92;36.10;100852.20;1756211;80;20967;-43
2022/06/29 10:37:15;;;;;;;8.85;6.00;;;;;;;33.90;35.62;100842.16;1746701;81;21431;-42
2022/06/29 10:39:49;;;;;;;;;;;;;;;33.53;36.56;100841.26;1750431;80;20927;-42
2022/06/29 10:45:20;;;;;;;7.75;5.85;;;;;;;33.14;39.10;100843.27;1772049;80;21050;-43
2022/06/29 10:47:58;;;;;;;11.73;4.80;;;;;;;33.45;37.67;100833.20;1756749;81;21125;-43
2022/06/29 10:50:29;;;;;;;9.58;3.80;;;;;;;33.71;37.01;100830.80;1745804;81;21014;-43
2022/06/29 10:53:11;;;;;;;9.08;5.70;;;;;;;34.00;36.53;100825.39;1764960;81;20933;-43
2022/06/29 10:55:48;;;;;;;7.72;4.20;;;;;;;34.11;35.64;100825.51;1763360;81;21248;-43
2022/06/29 10:58:15;;;;;;;7.50;4.30;;;;;;;34.15;36.58;100821.45;1763934;81;20910;-44
2022/06/29 11:00:48;;;;;;;4.28;3.95;;;;;;;34.30;36.18;100820.20;1757897;81;20987;-44
2022/06/29 11:03:22;;;;;;;6.35;3.90;;;;;;;34.35;35.75;100821.84;1755203;81;20947;-43
2022/06/29 11:12:02;;;;;;;14.63;8.45;;;;;;;33.93;38.07;100830.58;1764727;80;21593;-44
2022/06/29 11:15:39;;;;;;;21.65;10.53;;;;;;;33.58;36.98;100822.47;1749331;80;21014;-43
2022/06/29 11:16:36;;;;;;;10.65;6.42;;;;;;;33.21;38.25;100816.11;1760753;80;21075;-43
2022/06/29 11:19:04;;;;;;;4.83;4.30;;;;;;;33.00;39.10;100818.50;1768086;81;21399;-42
2022/06/29 11:21:32;;;;;;;6.40;3.72;;;;;;;33.08;39.99;100823.33;1761038;81;21399;-43
2022/06/29 11:24:04;;;;;;;7.78;3.70;;;;;;;33.55;41.46;100818.79;1751777;81;21536;-43
2022/06/29 11:26:33;;;;;;;4.47;4.22;;;;;;;34.11;41.17;100805.38;1737909;81;20909;-43
2022/06/29 11:29:02;;;;;;;5.42;4.03;;;;;;;34.59;37.83;100803.93;1741033;81;21619;-43
2022/06/29 11:31:30;;;;;;;9.50;3.40;;;;;;;34.89;37.38;100800.00;1760130;81;22274;-43
2022/06/29 11:33:57;;;;;;;8.20;3.25;;;;;;;35.21;36.50;100796.70;1769921;81;21312;-43
2022/06/29 11:36:30;;;;;;;3.47;3.17;;;;;;;35.37;35.66;100802.95;1742914;81;20937;-43
2022/06/29 11:39:02;;;;;;;14.10;3.37;;;;;;;35.45;32.56;100802.84;1758411;81;20925;-43
2022/06/29 11:44:31;;;;;;;2.83;2.62;;;;;;;35.43;33.50;100796.82;1767364;81;20873;-42
2022/06/29 11:46:55;;;;;;;23.40;20.00;;;;;;;34.99;32.93;100793.52;1751800;81;21088;-43
2022/06/29 11:49:36;;;;;;;12.35;11.00;;;;;;;34.50;34.38;100800.45;1751380;81;21458;-43
2022/06/29 11:52:13;;;;;;;5.67;4.40;;;;;;;34.36;34.31;100784.57;1755960;81;21019;-42